createdAt,value
2023-06-29T00:00:21.937Z,23.60
2023-06-29T00:02:50.676Z,23.60
2023-06-29T00:05:22.810Z,23.60
2023-06-29T00:07:51.372Z,23.60
2023-06-29T00:10:19.542Z,23.60
2023-06-29T00:12:47.670Z,23.60
2023-06-29T00:15:15.846Z,23.60
2023-06-29T00:17:48.677Z,23.60
2023-06-29T00:20:17.194Z,23.60
2023-06-29T00:22:49.411Z,23.60
2023-06-29T00:25:19.864Z,23.50
2023-06-29T00:27:48.088Z,23.60
2023-06-29T00:30:16.706Z,23.50
2023-06-29T00:32:44.893Z,23.50
2023-06-29T00:35:15.354Z,23.50
2023-06-29T00:37:43.772Z,23.40
2023-06-29T00:40:14.577Z,23.50
2023-06-29T00:42:43.741Z,23.40
2023-06-29T00:45:12.612Z,23.40
2023-06-29T00:47:40.922Z,23.40
2023-06-29T00:50:10.200Z,23.40
2023-06-29T00:52:38.644Z,23.40
2023-06-29T00:55:07.617Z,23.40
2023-06-29T00:57:39.587Z,23.40
2023-06-29T01:00:11.821Z,23.30
2023-06-29T01:02:42.620Z,23.30
2023-06-29T01:05:11.816Z,23.30
2023-06-29T01:07:44.779Z,23.30
2023-06-29T01:10:14.600Z,23.30
2023-06-29T01:12:44.448Z,23.30
2023-06-29T01:15:13.522Z,23.30
2023-06-29T01:17:42.742Z,23.20
2023-06-29T01:20:13.011Z,23.20
2023-06-29T01:22:46.033Z,23.20
2023-06-29T01:25:15.921Z,23.10
2023-06-29T01:27:44.653Z,23.10
2023-06-29T01:30:14.571Z,23.10
2023-06-29T01:32:42.728Z,23.10
2023-06-29T01:35:11.275Z,23.00
2023-06-29T01:37:44.363Z,23.00
2023-06-29T01:40:17.073Z,23.00
2023-06-29T01:42:46.038Z,23.00
2023-06-29T01:45:15.367Z,23.00
2023-06-29T01:47:43.552Z,22.90
2023-06-29T01:50:12.149Z,22.90
2023-06-29T01:52:40.409Z,22.90
2023-06-29T01:55:11.410Z,22.90
2023-06-29T01:57:41.074Z,22.90
2023-06-29T02:00:11.051Z,22.90
2023-06-29T02:02:39.249Z,22.90
2023-06-29T02:05:08.669Z,22.90
2023-06-29T02:07:37.009Z,22.80
2023-06-29T02:10:06.767Z,22.80
2023-06-29T02:12:35.670Z,22.80
2023-06-29T02:15:05.538Z,22.70
2023-06-29T02:17:33.672Z,22.70
2023-06-29T02:20:01.798Z,22.70
2023-06-29T02:22:29.890Z,22.70
2023-06-29T02:24:58.003Z,22.70
2023-06-29T02:27:26.050Z,22.60
2023-06-29T02:29:54.122Z,22.60
2023-06-29T02:32:23.617Z,22.60
2023-06-29T02:34:51.742Z,22.50
2023-06-29T02:37:19.812Z,22.50
2023-06-29T02:39:47.924Z,22.50
2023-06-29T02:42:16.026Z,22.40
2023-06-29T02:44:44.078Z,22.40
2023-06-29T02:47:12.264Z,22.30
2023-06-29T02:49:41.719Z,22.30
2023-06-29T02:52:10.029Z,22.30
2023-06-29T02:54:38.105Z,22.20
2023-06-29T02:57:06.683Z,22.10
2023-06-29T02:59:37.098Z,22.10
2023-06-29T03:02:05.284Z,22.10
2023-06-29T03:04:33.365Z,22.00
2023-06-29T03:07:02.848Z,22.00
2023-06-29T03:09:30.939Z,21.90
2023-06-29T03:11:59.037Z,21.90
2023-06-29T03:14:27.134Z,21.90
2023-06-29T03:16:55.308Z,21.80
2023-06-29T03:19:23.446Z,21.80
2023-06-29T03:21:51.530Z,21.80
2023-06-29T03:24:20.993Z,21.70
2023-06-29T03:26:49.656Z,21.70
2023-06-29T03:29:17.777Z,21.60
2023-06-29T03:31:45.910Z,21.60
2023-06-29T03:34:14.659Z,21.60
2023-06-29T03:36:42.786Z,21.60
2023-06-29T03:39:10.854Z,21.60
2023-06-29T03:41:40.301Z,21.60
2023-06-29T03:44:08.489Z,21.60
2023-06-29T03:46:36.552Z,21.50
2023-06-29T03:49:04.678Z,21.50
2023-06-29T03:51:32.834Z,21.50
2023-06-29T03:54:00.997Z,21.50
2023-06-29T03:56:29.115Z,21.50
2023-06-29T03:58:58.770Z,21.50
2023-06-29T04:01:27.217Z,21.50
2023-06-29T04:03:55.693Z,21.50
2023-06-29T04:06:23.793Z,21.50
2023-06-29T04:08:51.918Z,21.40
2023-06-29T04:11:20.042Z,21.40
2023-06-29T04:13:48.119Z,21.40
2023-06-29T04:16:17.639Z,21.50
2023-06-29T04:18:45.898Z,21.50
2023-06-29T04:21:13.959Z,21.50
2023-06-29T04:23:42.063Z,21.50
2023-06-29T04:26:10.801Z,21.50
2023-06-29T04:28:38.919Z,21.60
2023-06-29T04:31:07.065Z,21.70
2023-06-29T04:33:36.547Z,21.70
2023-06-29T04:36:04.905Z,21.80
2023-06-29T04:38:33.022Z,21.80
2023-06-29T04:41:05.585Z,21.90
2023-06-29T04:43:33.771Z,22.00
2023-06-29T04:46:02.753Z,22.00
2023-06-29T04:48:34.169Z,22.10
2023-06-29T04:51:06.232Z,22.10
2023-06-29T04:53:34.900Z,22.20
2023-06-29T04:56:03.900Z,22.30
2023-06-29T04:58:32.214Z,22.40
2023-06-29T05:01:00.335Z,22.40
2023-06-29T05:03:28.779Z,22.50
2023-06-29T05:05:57.009Z,22.50
2023-06-29T05:08:26.470Z,22.60
2023-06-29T05:10:54.571Z,22.60
2023-06-29T05:13:22.691Z,22.70
2023-06-29T05:15:50.795Z,22.80
2023-06-29T05:18:18.906Z,22.90
2023-06-29T05:20:47.916Z,23.00
2023-06-29T05:23:16.105Z,23.10
2023-06-29T05:25:45.918Z,23.20
2023-06-29T05:28:14.255Z,23.30
2023-06-29T05:30:42.335Z,23.30
2023-06-29T05:33:10.690Z,23.40
2023-06-29T05:35:38.817Z,23.50
2023-06-29T05:38:06.931Z,23.60
2023-06-29T05:40:35.090Z,23.60
2023-06-29T05:43:04.583Z,23.70
2023-06-29T05:45:32.665Z,23.90
2023-06-29T05:48:00.781Z,23.90
2023-06-29T05:50:29.163Z,24.00
2023-06-29T05:52:57.260Z,24.10
2023-06-29T05:55:25.407Z,24.20
2023-06-29T05:57:53.786Z,24.30
2023-06-29T06:00:23.512Z,24.30
2023-06-29T06:02:51.631Z,24.50
2023-06-29T06:05:19.758Z,24.60
2023-06-29T06:07:47.872Z,24.70
2023-06-29T06:10:16.006Z,24.70
2023-06-29T06:12:44.108Z,24.80
2023-06-29T06:15:15.265Z,24.90
2023-06-29T06:17:44.894Z,25.00
2023-06-29T06:20:14.204Z,25.10
2023-06-29T06:22:42.311Z,25.20
2023-06-29T06:25:11.089Z,25.20
2023-06-29T06:27:39.188Z,25.30
2023-06-29T06:30:09.677Z,25.40
2023-06-29T06:32:40.066Z,25.50
2023-06-29T06:35:10.989Z,25.50
2023-06-29T06:37:39.367Z,25.60
2023-06-29T06:40:09.810Z,25.70
2023-06-29T06:42:38.332Z,25.80
2023-06-29T06:45:08.692Z,25.90
2023-06-29T06:47:37.738Z,25.90
2023-06-29T06:50:07.324Z,26.00
2023-06-29T06:52:37.102Z,26.10
2023-06-29T06:55:06.874Z,26.20
2023-06-29T06:57:34.993Z,26.30
2023-06-29T07:00:05.535Z,26.30
2023-06-29T07:02:33.783Z,26.40
2023-06-29T07:05:02.058Z,26.50
2023-06-29T07:07:30.273Z,26.60
2023-06-29T07:10:00.429Z,26.60
2023-06-29T07:12:28.588Z,26.70
2023-06-29T07:14:56.702Z,26.80
2023-06-29T07:17:25.147Z,26.90
2023-06-29T07:24:55.389Z,27.10
2023-06-29T07:27:24.903Z,27.10
2023-06-29T07:29:53.008Z,27.20
2023-06-29T07:32:21.111Z,27.30
2023-06-29T07:34:49.177Z,27.30
2023-06-29T07:37:17.374Z,27.40
2023-06-29T07:39:45.454Z,27.50
2023-06-29T07:42:15.345Z,27.50
2023-06-29T07:44:50.467Z,27.60
2023-06-29T07:47:19.815Z,27.70
2023-06-29T07:49:47.921Z,27.70
2023-06-29T07:52:16.003Z,27.80
2023-06-29T07:54:44.172Z,27.90
2023-06-29T07:59:43.431Z,28.00
2023-06-29T08:02:12.985Z,28.00
2023-06-29T08:07:14.165Z,28.20
2023-06-29T08:09:42.373Z,28.30
2023-06-29T08:12:10.792Z,28.30
2023-06-29T08:14:40.224Z,28.40
2023-06-29T08:17:08.526Z,28.40
2023-06-29T08:19:38.082Z,28.50
2023-06-29T08:22:06.694Z,28.60
2023-06-29T08:24:34.818Z,28.60
2023-06-29T08:27:02.921Z,28.70
2023-06-29T08:29:31.049Z,28.70
2023-06-29T08:31:59.260Z,28.80
2023-06-29T08:34:27.419Z,28.90
2023-06-29T08:36:56.900Z,28.90
2023-06-29T08:39:25.136Z,29.00
2023-06-29T08:41:53.378Z,29.10
2023-06-29T08:44:23.508Z,29.20
2023-06-29T08:46:52.720Z,29.20
2023-06-29T08:49:24.295Z,29.20
2023-06-29T08:51:55.893Z,29.30
2023-06-29T08:54:28.077Z,29.30
2023-06-29T08:56:57.375Z,29.30
2023-06-29T08:59:27.061Z,29.40
2023-06-29T09:01:55.398Z,29.50
2023-06-29T09:04:25.550Z,29.60
2023-06-29T09:06:54.952Z,29.70
2023-06-29T09:09:23.160Z,29.80
2023-06-29T09:11:53.051Z,29.80
2023-06-29T09:14:21.253Z,29.90
2023-06-29T09:16:54.621Z,29.90
2023-06-29T09:19:25.515Z,30.00
2023-06-29T09:21:54.093Z,30.10
2023-06-29T09:24:22.694Z,30.20
2023-06-29T09:26:56.243Z,30.30
2023-06-29T09:29:24.823Z,30.40
2023-06-29T09:31:57.478Z,30.50
2023-06-29T09:34:27.695Z,30.60
2023-06-29T09:36:56.664Z,30.80
2023-06-29T09:39:26.393Z,30.90
2023-06-29T09:41:57.325Z,31.00
2023-06-29T09:44:26.737Z,31.10
2023-06-29T09:49:46.880Z,31.20
2023-06-29T09:52:15.198Z,31.30
2023-06-29T09:54:43.615Z,31.30
2023-06-29T09:57:13.580Z,31.40
2023-06-29T09:59:45.293Z,31.50
2023-06-29T10:02:14.694Z,31.60
2023-06-29T10:04:44.100Z,31.70
2023-06-29T10:07:16.959Z,31.80
2023-06-29T10:09:48.648Z,31.90
2023-06-29T10:12:19.830Z,31.90
2023-06-29T10:14:49.172Z,32.10
2023-06-29T10:17:22.254Z,32.20
2023-06-29T10:19:51.904Z,32.30
2023-06-29T10:22:20.967Z,32.50
2023-06-29T10:24:53.513Z,32.60
2023-06-29T10:27:25.575Z,32.70
2023-06-29T10:29:53.806Z,32.80
2023-06-29T10:32:32.479Z,32.90
2023-06-29T10:35:09.756Z,33.00
2023-06-29T10:37:39.205Z,33.10
2023-06-29T10:40:15.822Z,33.20
2023-06-29T10:42:55.573Z,33.30
2023-06-29T10:45:36.093Z,33.40
2023-06-29T10:48:09.265Z,33.50
2023-06-29T10:50:40.438Z,33.50
2023-06-29T10:53:11.620Z,33.60
2023-06-29T10:55:51.515Z,33.80
2023-06-29T10:58:25.957Z,33.90
2023-06-29T11:00:55.712Z,34.00
2023-06-29T11:03:25.356Z,34.10
2023-06-29T11:05:55.344Z,34.20
2023-06-29T11:08:24.010Z,34.20
2023-06-29T11:10:52.728Z,34.40
2023-06-29T11:13:21.693Z,34.40
2023-06-29T11:15:58.589Z,34.60
2023-06-29T11:18:31.617Z,34.70
2023-06-29T11:21:02.464Z,34.70
2023-06-29T11:23:30.551Z,34.70
2023-06-29T11:26:02.069Z,34.60
2023-06-29T11:28:33.637Z,34.70
2023-06-29T11:31:03.188Z,34.70
2023-06-29T11:33:34.979Z,34.70
2023-06-29T11:36:29.256Z,34.80
2023-06-29T11:39:09.070Z,34.90
2023-06-29T11:41:38.434Z,34.90
2023-06-29T11:44:07.807Z,35.10
2023-06-29T11:46:39.873Z,35.20
2023-06-29T11:49:08.236Z,35.30
2023-06-29T11:54:30.876Z,35.40
2023-06-29T11:56:58.985Z,35.50
2023-06-29T11:59:28.008Z,35.70
2023-06-29T12:01:58.017Z,35.70
2023-06-29T12:04:26.445Z,35.70
2023-06-29T12:06:57.277Z,35.80
2023-06-29T12:09:31.117Z,35.90
2023-06-29T12:11:59.880Z,36.00
2023-06-29T12:14:29.728Z,36.10
2023-06-29T12:19:34.524Z,36.30
2023-06-29T12:22:03.050Z,36.30
2023-06-29T12:24:32.023Z,36.30
2023-06-29T12:27:02.347Z,36.20
2023-06-29T12:29:30.460Z,36.10
2023-06-29T12:32:02.107Z,36.10
2023-06-29T12:34:32.526Z,36.00
2023-06-29T12:37:01.483Z,35.90
2023-06-29T12:39:30.003Z,35.90
2023-06-29T12:41:58.116Z,35.80
2023-06-29T12:44:27.655Z,35.70
2023-06-29T12:46:57.588Z,35.40
2023-06-29T12:49:28.174Z,35.20
2023-06-29T12:51:56.393Z,35.00
2023-06-29T12:54:25.477Z,34.70
2023-06-29T12:56:53.641Z,34.50
2023-06-29T12:59:21.744Z,34.40
2023-06-29T13:01:49.934Z,34.20
2023-06-29T13:04:18.162Z,34.00
2023-06-29T13:06:47.643Z,33.90
2023-06-29T13:09:15.787Z,33.80
2023-06-29T13:11:45.658Z,33.70
2023-06-29T13:14:13.720Z,33.60
2023-06-29T13:16:41.873Z,33.50
2023-06-29T13:19:10.001Z,33.40
2023-06-29T13:21:38.162Z,33.20
2023-06-29T13:24:09.725Z,33.10
2023-06-29T13:26:37.918Z,33.00
2023-06-29T13:29:06.101Z,32.90
2023-06-29T13:31:34.333Z,32.80
2023-06-29T13:34:02.455Z,32.70
2023-06-29T13:36:30.556Z,32.70
2023-06-29T13:38:58.650Z,32.60
2023-06-29T13:41:40.410Z,32.50
2023-06-29T13:44:09.895Z,32.40
2023-06-29T13:46:38.435Z,32.30
2023-06-29T13:49:06.658Z,32.30
2023-06-29T13:51:35.841Z,32.30
2023-06-29T13:54:05.969Z,32.20
2023-06-29T13:56:38.746Z,32.20
2023-06-29T13:59:09.306Z,32.10
2023-06-29T14:01:37.965Z,32.10
2023-06-29T14:04:06.851Z,32.10
2023-06-29T14:06:37.680Z,32.10
2023-06-29T14:09:07.029Z,31.90
2023-06-29T14:11:36.602Z,31.90
2023-06-29T14:14:04.725Z,31.80
2023-06-29T14:16:33.589Z,31.80
2023-06-29T14:19:02.083Z,31.80
2023-06-29T14:21:30.616Z,31.70
2023-06-29T14:23:58.706Z,31.70
2023-06-29T14:26:26.797Z,31.70
2023-06-29T14:28:56.250Z,31.60
2023-06-29T14:31:24.332Z,31.60
2023-06-29T14:33:52.529Z,31.60
2023-06-29T14:36:20.665Z,31.50
2023-06-29T14:38:50.526Z,31.50
2023-06-29T14:41:19.394Z,31.50
2023-06-29T14:43:47.507Z,31.50
2023-06-29T14:46:17.006Z,31.40
2023-06-29T14:48:45.533Z,31.40
2023-06-29T14:51:13.661Z,31.40
2023-06-29T14:53:41.774Z,31.40
2023-06-29T14:56:11.495Z,31.30
2023-06-29T14:58:39.910Z,31.30
2023-06-29T15:01:08.132Z,31.20
2023-06-29T15:03:39.709Z,31.20
2023-06-29T15:06:08.025Z,31.20
2023-06-29T15:08:36.136Z,31.20
2023-06-29T15:11:04.246Z,31.20
2023-06-29T15:13:32.332Z,31.10
2023-06-29T15:16:00.470Z,31.10
2023-06-29T15:18:28.549Z,31.10
2023-06-29T15:20:58.154Z,31.00
2023-06-29T15:23:26.283Z,31.00
2023-06-29T15:25:54.370Z,31.00
2023-06-29T15:28:22.500Z,31.00
2023-06-29T15:30:53.580Z,31.00
2023-06-29T15:33:22.348Z,30.90
2023-06-29T15:35:50.495Z,30.90
2023-06-29T15:38:20.499Z,30.90
2023-06-29T15:40:50.848Z,30.90
2023-06-29T15:43:18.994Z,30.90
2023-06-29T15:45:47.429Z,30.80
2023-06-29T15:48:16.547Z,30.80
2023-06-29T15:50:44.792Z,30.70
2023-06-29T15:53:13.030Z,30.70
2023-06-29T15:55:42.805Z,30.70
2023-06-29T15:58:11.148Z,30.70
2023-06-29T16:00:39.730Z,30.60
2023-06-29T16:03:08.042Z,30.60
2023-06-29T16:05:36.944Z,30.60
2023-06-29T16:08:05.560Z,30.60
2023-06-29T16:10:33.803Z,30.60
2023-06-29T16:13:03.269Z,30.50
2023-06-29T16:15:31.346Z,30.50
2023-06-29T16:17:59.595Z,30.50
2023-06-29T16:20:27.692Z,30.50
2023-06-29T16:22:55.840Z,30.40
2023-06-29T16:25:25.236Z,30.40
2023-06-29T16:27:53.415Z,30.40
2023-06-29T16:30:23.185Z,30.40
2023-06-29T16:32:51.320Z,30.30
2023-06-29T16:35:20.318Z,30.30
2023-06-29T16:37:48.409Z,30.30
2023-06-29T16:40:16.646Z,30.30
2023-06-29T16:42:44.760Z,30.30
2023-06-29T16:45:14.176Z,30.20
2023-06-29T16:47:43.702Z,30.20
2023-06-29T16:50:12.347Z,30.20
2023-06-29T16:52:40.453Z,30.10
2023-06-29T16:55:09.236Z,30.10
2023-06-29T16:57:37.407Z,30.00
2023-06-29T17:00:06.761Z,30.00
2023-06-29T17:02:34.890Z,30.00
2023-06-29T17:05:04.468Z,29.90
2023-06-29T17:07:32.652Z,29.90
2023-06-29T17:10:00.831Z,29.80
2023-06-29T17:12:29.158Z,29.80
2023-06-29T17:14:57.261Z,29.80
2023-06-29T17:17:25.495Z,29.70
2023-06-29T17:19:53.649Z,29.70
2023-06-29T17:22:23.117Z,29.70
2023-06-29T17:24:51.204Z,29.60
2023-06-29T17:27:19.339Z,29.60
2023-06-29T17:29:49.541Z,29.50
2023-06-29T17:32:17.742Z,29.50
2023-06-29T17:34:45.837Z,29.40
2023-06-29T17:37:13.975Z,29.30
2023-06-29T17:39:43.424Z,29.20
2023-06-29T17:42:20.857Z,29.20
2023-06-29T17:44:49.114Z,29.10
2023-06-29T17:47:17.421Z,29.10
2023-06-29T17:49:45.994Z,29.00
2023-06-29T17:52:14.126Z,28.90
2023-06-29T17:54:43.635Z,28.90
2023-06-29T17:57:11.748Z,28.80
2023-06-29T17:59:39.878Z,28.70
2023-06-29T18:02:08.111Z,28.70
2023-06-29T18:04:36.584Z,28.60
2023-06-29T18:07:05.172Z,28.50
2023-06-29T18:09:33.299Z,28.50
2023-06-29T18:12:02.828Z,28.50
2023-06-29T18:14:30.933Z,28.40
2023-06-29T18:16:59.093Z,28.30
2023-06-29T18:19:27.244Z,28.30
2023-06-29T18:21:55.316Z,28.30
2023-06-29T18:24:23.626Z,28.20
2023-06-29T18:29:21.587Z,28.10
2023-06-29T18:31:49.763Z,28.00
2023-06-29T18:34:17.870Z,28.00
2023-06-29T18:36:45.994Z,27.90
2023-06-29T18:39:15.994Z,27.90
2023-06-29T18:41:44.331Z,27.80
2023-06-29T18:44:13.857Z,27.80
2023-06-29T18:47:08.051Z,27.70
2023-06-29T18:49:49.693Z,27.70
2023-06-29T18:52:19.378Z,27.60
2023-06-29T18:54:47.519Z,27.60
2023-06-29T18:57:15.648Z,27.50
2023-06-29T18:59:44.095Z,27.40
2023-06-29T19:02:13.681Z,27.40
2023-06-29T19:04:42.167Z,27.40
2023-06-29T19:07:12.449Z,27.30
2023-06-29T19:09:40.779Z,27.30
2023-06-29T19:12:09.571Z,27.30
2023-06-29T19:14:37.867Z,27.20
2023-06-29T19:17:06.528Z,27.20
2023-06-29T19:19:36.689Z,27.10
2023-06-29T19:22:05.207Z,27.10
2023-06-29T19:24:33.331Z,27.00
2023-06-29T19:27:03.744Z,27.00
2023-06-29T19:29:31.842Z,26.90
2023-06-29T19:32:00.005Z,26.90
2023-06-29T19:34:28.175Z,26.90
2023-06-29T19:37:02.052Z,26.80
2023-06-29T19:39:30.215Z,26.80
2023-06-29T19:41:58.355Z,26.70
2023-06-29T19:44:26.482Z,26.70
2023-06-29T19:46:54.622Z,26.70
2023-06-29T19:49:22.800Z,26.60
2023-06-29T19:51:57.930Z,26.60
2023-06-29T19:54:27.513Z,26.60
2023-06-29T19:56:55.946Z,26.50
2023-06-29T19:59:24.064Z,26.50
2023-06-29T20:01:52.143Z,26.50
2023-06-29T20:04:20.380Z,26.40
2023-06-29T20:06:50.449Z,26.40
2023-06-29T20:09:18.811Z,26.40
2023-06-29T20:11:48.310Z,26.40
2023-06-29T20:14:16.505Z,26.30
2023-06-29T20:16:44.892Z,26.30
2023-06-29T20:19:13.094Z,26.30
2023-06-29T20:21:41.371Z,26.20
2023-06-29T20:24:09.551Z,26.20
2023-06-29T20:26:38.138Z,26.10
2023-06-29T20:29:07.614Z,26.10
2023-06-29T20:31:35.768Z,26.10
2023-06-29T20:34:03.858Z,26.10
2023-06-29T20:36:31.924Z,26.10
2023-06-29T20:39:00.185Z,26.00
2023-06-29T20:41:28.275Z,26.00
2023-06-29T20:43:56.449Z,26.00
2023-06-29T20:46:28.123Z,25.90
2023-06-29T20:48:56.265Z,25.90
2023-06-29T20:51:24.373Z,25.90
2023-06-29T20:53:52.469Z,25.80
2023-06-29T20:56:20.770Z,25.80
2023-06-29T20:58:48.940Z,25.70
2023-06-29T21:01:17.165Z,25.70
2023-06-29T21:03:46.922Z,25.70
2023-06-29T21:06:15.241Z,25.70
2023-06-29T21:08:43.502Z,25.70
2023-06-29T21:11:12.014Z,25.60
2023-06-29T21:13:40.595Z,25.60
2023-06-29T21:16:09.363Z,25.50
2023-06-29T21:18:38.392Z,25.50
2023-06-29T21:21:08.690Z,25.50
2023-06-29T21:23:37.080Z,25.50
2023-06-29T21:26:05.608Z,25.50
2023-06-29T21:28:35.876Z,25.40
2023-06-29T21:31:05.917Z,25.40
2023-06-29T21:33:34.490Z,25.40
2023-06-29T21:36:02.986Z,25.30
2023-06-29T21:38:33.621Z,25.30
2023-06-29T21:41:01.945Z,25.30
2023-06-29T21:43:30.029Z,25.20
2023-06-29T21:45:58.131Z,25.20
2023-06-29T21:48:26.302Z,25.20
2023-06-29T21:50:54.479Z,25.20
2023-06-29T21:53:22.601Z,25.20
2023-06-29T21:55:52.101Z,25.10
2023-06-29T21:58:20.189Z,25.10
2023-06-29T22:00:48.481Z,25.00
2023-06-29T22:03:16.659Z,25.00
2023-06-29T22:05:45.733Z,25.00
2023-06-29T22:08:14.314Z,24.90
2023-06-29T22:10:42.468Z,24.90
2023-06-29T22:13:12.206Z,24.90
2023-06-29T22:15:44.637Z,24.90
2023-06-29T22:18:13.475Z,24.90
2023-06-29T22:20:41.731Z,24.80
2023-06-29T22:23:09.857Z,24.80
2023-06-29T22:25:37.925Z,24.80
2023-06-29T22:28:08.096Z,24.70
2023-06-29T22:30:37.781Z,24.70
2023-06-29T22:33:06.094Z,24.70
2023-06-29T22:35:34.275Z,24.60
2023-06-29T22:38:02.385Z,24.60
2023-06-29T22:40:30.454Z,24.50
2023-06-29T22:42:58.559Z,24.50
2023-06-29T22:45:26.839Z,24.50
2023-06-29T22:47:56.368Z,24.50
2023-06-29T22:50:24.567Z,24.40
2023-06-29T22:52:52.677Z,24.40
2023-06-29T22:55:20.931Z,24.40
2023-06-29T22:57:49.056Z,24.30
2023-06-29T23:00:17.500Z,24.30
2023-06-29T23:02:45.934Z,24.30
2023-06-29T23:05:16.112Z,24.30
2023-06-29T23:07:45.533Z,24.30
2023-06-29T23:10:14.568Z,24.30
2023-06-29T23:12:46.582Z,24.20
2023-06-29T23:15:14.991Z,24.20
2023-06-29T23:17:43.241Z,24.20
2023-06-29T23:20:14.175Z,24.20
2023-06-29T23:22:45.397Z,24.20
2023-06-29T23:25:13.753Z,24.20
2023-06-29T23:27:44.390Z,24.20
2023-06-29T23:30:14.368Z,24.20
2023-06-29T23:32:43.308Z,24.20
2023-06-29T23:35:11.969Z,24.20
2023-06-29T23:37:40.441Z,24.20
2023-06-29T23:40:11.746Z,24.20
2023-06-29T23:42:40.432Z,24.30
2023-06-29T23:45:10.894Z,24.30
2023-06-29T23:47:39.500Z,24.30
2023-06-29T23:50:11.999Z,24.30
2023-06-29T23:52:40.634Z,24.30
2023-06-29T23:55:12.462Z,24.40
2023-06-29T23:57:41.668Z,24.40
